createdAt,value
2023-02-11T00:01:22.589Z,102077.19
2023-02-11T00:03:49.927Z,102091.34
2023-02-11T00:06:17.794Z,102085.81
2023-02-11T00:08:44.956Z,102093.38
2023-02-11T00:11:18.932Z,102083.41
2023-02-11T00:13:46.468Z,102092.88
2023-02-11T00:16:20.142Z,102082.47
2023-02-11T00:18:47.890Z,102087.13
2023-02-11T00:21:25.313Z,102093.81
2023-02-11T00:23:53.329Z,102087.28
2023-02-11T00:26:34.745Z,102073.47
2023-02-11T00:29:05.240Z,102078.53
2023-02-11T00:31:33.291Z,102074.13
2023-02-11T00:34:00.418Z,102059.63
2023-02-11T00:36:31.349Z,102043.13
2023-02-11T00:39:01.930Z,102043.19
2023-02-11T00:41:29.947Z,102034.78
2023-02-11T00:43:57.438Z,102030.03
2023-02-11T00:46:24.892Z,102001.34
2023-02-11T00:48:55.049Z,102012.34
2023-02-11T00:51:25.037Z,102014.00
2023-02-11T00:53:52.142Z,102018.00
2023-02-11T00:56:19.570Z,102017.75
2023-02-11T00:58:46.736Z,102026.91
2023-02-11T01:01:14.202Z,102026.81
2023-02-11T01:03:43.926Z,102023.28
2023-02-11T01:06:11.812Z,101994.38
2023-02-11T01:08:40.189Z,101983.19
2023-02-11T01:11:14.097Z,101979.50
2023-02-11T01:13:41.327Z,101961.72
2023-02-11T01:16:10.850Z,101946.38
2023-02-11T01:18:38.330Z,101948.47
2023-02-11T01:21:05.805Z,101957.66
2023-02-11T01:23:32.909Z,101935.91
2023-02-11T01:26:02.450Z,101923.13
2023-02-11T01:28:30.982Z,101928.75
2023-02-11T01:31:01.944Z,101931.00
2023-02-11T01:33:29.480Z,101934.75
2023-02-11T01:36:01.032Z,101942.41
2023-02-11T01:38:28.149Z,101939.16
2023-02-11T01:41:08.915Z,101924.28
2023-02-11T01:43:45.178Z,101913.81
2023-02-11T01:46:31.126Z,101912.63
2023-02-11T01:49:18.783Z,101895.81
2023-02-11T01:51:54.797Z,101909.94
2023-02-11T01:54:45.237Z,101897.72
2023-02-11T01:57:25.396Z,101896.88
2023-02-11T02:00:36.782Z,101880.78
2023-02-11T02:03:09.879Z,101878.66
2023-02-11T02:06:11.083Z,101883.78
2023-02-11T02:09:18.236Z,101885.28
2023-02-11T02:11:45.422Z,101883.13
2023-02-11T02:14:12.488Z,101883.81
2023-02-11T02:16:39.738Z,101867.25
2023-02-11T02:20:11.349Z,101868.56
2023-02-11T02:23:20.917Z,101866.34
2023-02-11T02:26:38.577Z,101840.81
2023-02-11T02:29:28.250Z,101831.59
2023-02-11T02:32:16.783Z,101811.72
2023-02-11T02:35:40.010Z,101804.94
2023-02-11T02:38:12.877Z,101809.63
2023-02-11T02:40:57.977Z,101814.50
2023-02-11T02:43:27.857Z,101802.28
2023-02-11T02:45:55.024Z,101806.78
2023-02-11T02:48:35.763Z,102012.47
2023-02-11T02:51:34.748Z,101723.31
2023-02-11T02:54:29.584Z,101805.75
2023-02-11T02:57:17.665Z,101799.31
2023-02-11T02:59:47.378Z,101800.56
2023-02-11T03:02:23.423Z,101793.69
2023-02-11T03:05:10.780Z,101790.13
2023-02-11T03:07:44.411Z,101793.56
2023-02-11T03:10:36.384Z,101800.09
2023-02-11T03:13:05.461Z,101791.09
2023-02-11T03:15:38.782Z,101801.56
2023-02-11T03:18:09.239Z,101770.31
2023-02-11T03:20:39.553Z,101761.59
2023-02-11T03:23:24.169Z,101758.41
2023-02-11T03:26:03.079Z,101756.13
2023-02-11T03:28:41.358Z,101742.41
2023-02-11T03:31:37.589Z,101737.56
2023-02-11T03:34:15.848Z,101749.72
2023-02-11T03:37:25.616Z,101746.84
2023-02-11T03:40:12.205Z,101744.28
2023-02-11T03:43:47.419Z,101741.72
2023-02-11T03:46:18.976Z,101737.16
2023-02-11T03:48:52.666Z,101724.13
2023-02-11T03:51:24.255Z,101719.25
2023-02-11T03:53:55.746Z,101709.38
2023-02-11T03:56:29.182Z,101712.81
2023-02-11T03:58:56.596Z,101711.63
2023-02-11T04:01:23.852Z,101716.47
2023-02-11T04:03:51.012Z,101703.84
2023-02-11T04:06:18.493Z,101687.56
2023-02-11T04:08:45.686Z,101652.56
2023-02-11T04:11:14.980Z,101686.41
2023-02-11T04:13:44.781Z,101675.59
2023-02-11T04:16:11.967Z,101667.50
2023-02-11T04:18:39.078Z,101676.25
2023-02-11T04:21:06.345Z,101674.78
2023-02-11T04:23:33.505Z,101677.06
2023-02-11T04:26:00.590Z,101679.09
2023-02-11T04:28:31.587Z,101662.00
2023-02-11T04:30:58.939Z,101673.41
2023-02-11T04:33:26.191Z,101680.53
2023-02-11T04:35:53.289Z,101666.09
2023-02-11T04:38:20.396Z,101662.72
2023-02-11T04:40:50.908Z,101668.81
2023-02-11T04:43:18.399Z,101670.94
2023-02-11T04:45:45.477Z,101676.38
2023-02-11T04:48:12.585Z,101670.56
2023-02-11T04:50:39.760Z,101672.75
2023-02-11T04:53:06.841Z,101660.63
2023-02-11T04:55:34.000Z,101665.91
2023-02-11T04:58:01.125Z,101671.28
2023-02-11T05:00:28.264Z,101659.31
2023-02-11T05:02:55.360Z,101663.78
2023-02-11T05:05:22.592Z,101646.44
2023-02-11T05:07:49.697Z,101648.56
2023-02-11T05:10:17.067Z,101623.28
2023-02-11T05:12:44.210Z,101633.44
2023-02-11T05:15:13.746Z,101625.31
2023-02-11T05:17:40.902Z,101623.44
2023-02-11T05:20:08.812Z,101623.16
2023-02-11T05:22:35.850Z,101609.91
2023-02-11T05:25:03.014Z,101609.22
2023-02-11T05:27:30.152Z,101610.75
2023-02-11T05:29:57.434Z,101601.44
2023-02-11T05:32:27.750Z,101603.59
2023-02-11T05:34:54.929Z,101601.50
2023-02-11T05:37:22.080Z,101590.94
2023-02-11T05:39:49.280Z,101588.94
2023-02-11T05:42:16.401Z,101583.88
2023-02-11T05:44:45.763Z,101568.94
2023-02-11T05:47:12.790Z,101571.09
2023-02-11T05:49:39.908Z,101564.31
2023-02-11T05:52:06.986Z,101570.59
2023-02-11T05:54:34.088Z,101567.31
2023-02-11T05:57:01.226Z,101574.63
2023-02-11T05:59:28.334Z,101572.34
2023-02-11T06:01:55.924Z,101574.94
2023-02-11T06:04:23.132Z,101554.81
2023-02-11T06:06:50.383Z,101563.72
2023-02-11T06:09:19.871Z,101577.09
2023-02-11T06:11:49.455Z,101569.06
2023-02-11T06:14:16.744Z,101561.78
2023-02-11T06:16:43.951Z,101569.06
2023-02-11T06:19:12.460Z,101572.84
2023-02-11T06:21:44.218Z,101558.31
2023-02-11T06:24:12.802Z,101561.88
2023-02-11T06:26:42.704Z,101554.84
2023-02-11T06:29:10.415Z,101542.69
2023-02-11T06:31:39.357Z,101528.78
2023-02-11T06:34:07.923Z,101527.88
2023-02-11T06:36:35.696Z,101533.13
2023-02-11T06:39:05.550Z,101528.75
2023-02-11T06:41:33.052Z,101530.63
2023-02-11T06:44:00.811Z,101511.84
2023-02-11T06:46:28.065Z,101527.06
2023-02-11T06:48:58.116Z,101536.34
2023-02-11T06:51:28.628Z,101522.00
2023-02-11T06:53:55.765Z,101532.06
2023-02-11T06:56:27.733Z,101522.28
2023-02-11T06:58:56.672Z,101534.53
2023-02-11T07:01:25.793Z,101534.84
2023-02-11T07:03:53.475Z,101517.47
2023-02-11T07:06:25.748Z,101506.91
2023-02-11T07:08:52.843Z,101508.84
2023-02-11T07:11:24.912Z,101512.13
2023-02-11T07:13:55.257Z,101499.53
2023-02-11T07:16:25.072Z,101489.25
2023-02-11T07:18:53.224Z,101490.31
2023-02-11T07:21:24.418Z,101496.56
2023-02-11T07:23:51.935Z,101505.47
2023-02-11T07:26:23.353Z,101498.72
2023-02-11T07:28:51.659Z,101505.47
2023-02-11T07:31:28.311Z,101498.09
2023-02-11T07:34:00.017Z,101488.66
2023-02-11T07:36:29.675Z,101485.13
2023-02-11T07:38:56.968Z,101496.19
2023-02-11T07:41:25.680Z,101496.81
2023-02-11T07:43:53.496Z,101509.13
2023-02-11T07:46:28.374Z,101494.03
2023-02-11T07:48:56.503Z,101469.56
2023-02-11T07:51:29.921Z,101486.63
2023-02-11T07:54:00.051Z,101499.03
2023-02-11T07:56:28.719Z,101479.28
2023-02-11T07:58:59.795Z,101464.56
2023-02-11T08:01:28.760Z,101470.88
2023-02-11T08:03:58.419Z,101475.94
2023-02-11T08:06:29.788Z,101471.84
2023-02-11T08:08:57.286Z,101471.84
2023-02-11T08:11:28.236Z,101467.53
2023-02-11T08:13:56.761Z,101466.44
2023-02-11T08:16:32.167Z,101471.19
2023-02-11T08:19:04.415Z,101466.34
2023-02-11T08:21:31.581Z,101476.38
2023-02-11T08:23:59.190Z,101495.19
2023-02-11T08:26:29.795Z,101484.53
2023-02-11T08:28:58.932Z,101487.28
2023-02-11T08:31:41.680Z,101489.28
2023-02-11T08:34:11.531Z,101494.84
2023-02-11T08:36:42.833Z,101468.13
2023-02-11T08:39:20.490Z,101465.34
2023-02-11T08:41:54.007Z,101448.59
2023-02-11T08:44:24.741Z,101436.84
2023-02-11T08:46:52.412Z,101460.91
2023-02-11T08:49:20.441Z,101463.28
2023-02-11T08:51:48.403Z,101468.66
2023-02-11T08:54:16.326Z,101487.66
2023-02-11T08:56:43.744Z,101490.28
2023-02-11T08:59:15.675Z,101483.13
2023-02-11T09:01:44.428Z,101476.63
2023-02-11T09:04:11.721Z,101473.91
2023-02-11T09:06:38.865Z,101476.25
2023-02-11T09:09:06.508Z,101473.25
2023-02-11T09:11:37.427Z,101474.69
2023-02-11T09:14:05.181Z,101477.16
2023-02-11T09:16:36.615Z,101465.84
2023-02-11T09:19:05.779Z,101470.28
2023-02-11T09:21:33.300Z,101490.63
2023-02-11T09:24:00.494Z,101461.03
2023-02-11T09:26:31.930Z,101471.84
2023-02-11T09:29:04.913Z,101442.59
2023-02-11T09:31:34.162Z,101458.56
2023-02-11T09:34:06.640Z,101474.22
2023-02-11T09:36:38.650Z,101463.56
2023-02-11T09:39:11.479Z,101417.81
2023-02-11T09:42:15.705Z,101410.66
2023-02-11T09:44:46.377Z,101404.19
2023-02-11T09:47:34.247Z,101401.34
2023-02-11T09:50:07.606Z,101383.22
2023-02-11T09:52:56.021Z,101371.75
2023-02-11T09:55:37.958Z,101399.94
2023-02-11T09:58:15.502Z,101387.41
2023-02-11T10:01:27.882Z,101367.13
2023-02-11T10:04:02.935Z,101377.03
2023-02-11T10:06:49.767Z,101366.28
2023-02-11T10:09:48.224Z,101387.78
2023-02-11T10:12:42.375Z,101380.59
2023-02-11T10:15:52.003Z,101399.56
2023-02-11T10:18:39.301Z,101393.84
2023-02-11T10:21:47.917Z,101381.16
2023-02-11T10:24:20.048Z,101386.88
2023-02-11T10:26:47.605Z,101386.09
2023-02-11T10:29:41.069Z,101387.25
2023-02-11T10:32:27.796Z,101389.59
2023-02-11T10:35:01.125Z,101391.78
2023-02-11T10:37:28.488Z,101401.28
2023-02-11T10:39:55.577Z,101402.75
2023-02-11T10:42:22.706Z,101408.72
2023-02-11T10:45:01.734Z,101410.25
2023-02-11T10:47:37.612Z,101396.75
2023-02-11T10:50:22.904Z,101391.31
2023-02-11T10:52:50.198Z,101391.03
2023-02-11T10:55:23.432Z,101386.88
2023-02-11T10:57:58.698Z,101404.44
2023-02-11T11:00:42.382Z,101405.84
2023-02-11T11:03:25.707Z,101396.47
2023-02-11T11:06:02.845Z,101399.75
2023-02-11T11:08:46.697Z,101396.16
2023-02-11T11:11:19.289Z,101402.56
2023-02-11T11:14:03.843Z,101401.72
2023-02-11T11:16:37.198Z,101403.78
2023-02-11T11:19:07.288Z,101395.50
2023-02-11T11:21:51.066Z,101394.19
2023-02-11T11:24:55.382Z,101394.34
2023-02-11T11:27:25.945Z,101401.09
2023-02-11T11:29:56.464Z,101399.97
2023-02-11T11:32:33.801Z,101401.03
2023-02-11T11:35:06.392Z,101399.53
2023-02-11T11:37:37.233Z,101387.25
2023-02-11T11:40:25.618Z,101396.34
2023-02-11T11:43:23.029Z,101402.69
2023-02-11T11:45:57.800Z,101390.13
2023-02-11T11:48:33.660Z,101412.88
2023-02-11T11:51:06.185Z,101403.06
2023-02-11T11:54:00.198Z,101411.06
2023-02-11T11:56:34.318Z,101414.41
2023-02-11T11:59:11.156Z,101408.94
2023-02-11T12:02:20.499Z,101407.41
2023-02-11T12:04:59.634Z,101406.88
2023-02-11T12:07:45.500Z,101403.63
2023-02-11T12:10:58.978Z,101405.38
2023-02-11T12:13:39.556Z,101404.28
2023-02-11T12:17:06.451Z,101402.88
2023-02-11T12:19:52.479Z,101404.97
2023-02-11T12:23:14.113Z,101403.50
2023-02-11T12:26:00.870Z,101412.72
2023-02-11T12:28:55.008Z,101417.50
2023-02-11T12:31:50.709Z,101425.19
2023-02-11T12:34:46.127Z,101429.63
2023-02-11T12:37:41.442Z,101429.22
2023-02-11T12:40:35.989Z,101423.56
2023-02-11T12:43:17.380Z,101432.16
2023-02-11T12:46:12.814Z,101433.31
2023-02-11T12:49:45.667Z,101435.88
2023-02-11T12:52:31.082Z,101441.66
2023-02-11T12:55:11.804Z,101434.53
2023-02-11T12:57:41.874Z,101443.34
2023-02-11T13:00:38.004Z,101444.63
2023-02-11T13:03:19.215Z,101440.25
2023-02-11T13:05:58.753Z,101439.94
2023-02-11T13:08:43.471Z,101442.75
2023-02-11T13:11:37.937Z,101439.19
2023-02-11T13:14:17.277Z,101440.06
2023-02-11T13:16:51.004Z,101442.75
2023-02-11T13:19:34.537Z,101454.69
2023-02-11T13:22:20.132Z,101453.75
2023-02-11T13:24:59.844Z,101451.13
2023-02-11T13:27:33.262Z,101458.00
2023-02-11T13:30:39.455Z,101466.22
2023-02-11T13:33:20.884Z,101455.00
2023-02-11T13:35:57.187Z,101460.28
2023-02-11T13:38:33.566Z,101469.13
2023-02-11T13:41:25.938Z,101468.50
2023-02-11T13:44:11.416Z,101477.97
2023-02-11T13:47:01.571Z,101476.31
2023-02-11T13:49:50.774Z,101484.34
2023-02-11T13:52:37.805Z,101491.69
2023-02-11T13:55:24.600Z,101487.94
2023-02-11T13:58:14.911Z,101494.28
2023-02-11T14:00:50.476Z,101507.44
2023-02-11T14:03:49.611Z,101511.50
2023-02-11T14:07:05.544Z,101509.66
2023-02-11T14:09:40.282Z,101519.19
2023-02-11T14:12:31.388Z,101532.16
2023-02-11T14:15:21.281Z,101524.22
2023-02-11T14:17:52.546Z,101533.22
2023-02-11T14:20:45.581Z,101537.50
2023-02-11T14:23:27.291Z,101543.13
2023-02-11T14:26:19.907Z,101553.06
2023-02-11T14:29:17.607Z,101555.50
2023-02-11T14:31:55.073Z,101566.44
2023-02-11T14:34:31.011Z,101571.28
2023-02-11T14:37:20.867Z,101582.09
2023-02-11T14:39:58.461Z,101585.72
2023-02-11T14:42:31.147Z,101587.22
2023-02-11T14:45:07.733Z,101585.59
2023-02-11T14:47:45.309Z,101594.25
2023-02-11T14:50:26.371Z,101593.72
2023-02-11T14:52:54.877Z,101590.53
2023-02-11T14:55:38.125Z,101600.25
2023-02-11T14:58:17.110Z,101595.81
2023-02-11T15:01:09.309Z,101601.69
2023-02-11T15:03:47.887Z,101597.00
2023-02-11T15:06:19.166Z,62747.53
2023-02-11T15:09:03.624Z,62747.53
2023-02-11T15:11:39.651Z,62747.53
2023-02-11T15:14:21.670Z,62747.53
2023-02-11T15:16:50.891Z,62747.53
2023-02-11T15:19:41.271Z,62747.53
2023-02-11T15:22:33.123Z,62747.53
2023-02-11T15:25:16.616Z,62747.53
2023-02-11T15:27:48.226Z,62747.53
2023-02-11T15:30:25.013Z,62747.53
2023-02-11T15:32:59.955Z,62747.53
2023-02-11T15:35:35.062Z,62747.53
2023-02-11T15:38:02.700Z,62747.53
2023-02-11T15:40:33.771Z,62747.53
2023-02-11T15:43:06.005Z,62747.53
2023-02-11T15:45:33.894Z,62747.53
2023-02-11T15:48:26.999Z,62747.53
2023-02-11T15:51:01.473Z,62747.53
2023-02-11T15:53:43.113Z,62747.53
2023-02-11T15:56:25.684Z,62747.53
2023-02-11T15:58:56.154Z,62747.53
2023-02-11T16:01:38.324Z,62747.53
2023-02-11T16:04:06.339Z,62747.53
2023-02-11T16:12:25.109Z,62747.53
2023-02-11T16:14:59.544Z,62747.53
2023-02-11T16:17:29.757Z,62747.53
2023-02-11T16:19:57.465Z,62747.53
2023-02-11T16:22:38.190Z,62747.53
2023-02-11T16:25:06.315Z,62747.53
2023-02-11T16:27:41.555Z,62747.53
2023-02-11T16:30:35.011Z,62747.53
2023-02-11T16:33:05.023Z,62747.53
2023-02-11T16:35:32.851Z,62747.53
2023-02-11T16:38:00.428Z,62747.53
2023-02-11T16:40:30.756Z,62747.53
2023-02-11T16:42:59.377Z,62747.53
2023-02-11T16:45:27.493Z,62747.53
2023-02-11T16:47:55.513Z,62747.53
2023-02-11T16:50:27.889Z,62747.53
2023-02-11T16:52:55.582Z,62747.53
2023-02-11T16:55:26.330Z,62747.53
2023-02-11T16:57:54.670Z,62747.53
2023-02-11T17:00:23.583Z,62747.53
2023-02-11T17:02:54.135Z,62747.53
2023-02-11T17:05:25.485Z,62747.53
2023-02-11T17:07:57.926Z,62747.53
2023-02-11T17:10:27.457Z,62747.53
2023-02-11T17:12:57.411Z,62747.53
2023-02-11T17:15:24.809Z,62747.53
2023-02-11T17:17:52.348Z,62747.53
2023-02-11T17:20:20.842Z,62747.53
2023-02-11T17:22:51.206Z,62747.53
2023-02-11T17:25:18.962Z,62747.53
2023-02-11T17:27:51.213Z,62747.53
2023-02-11T17:30:23.302Z,62747.53
2023-02-11T17:32:54.052Z,62747.53
2023-02-11T17:35:24.068Z,62747.53
2023-02-11T17:37:51.914Z,62747.53
2023-02-11T17:40:19.784Z,62747.53
2023-02-11T17:48:28.190Z,62747.53
2023-02-11T17:50:58.846Z,62747.53
2023-02-11T17:53:26.608Z,62747.53
2023-02-11T17:55:56.777Z,62747.53
2023-02-11T17:58:24.354Z,62747.53
2023-02-11T18:00:52.203Z,62747.53
2023-02-11T18:03:22.179Z,62747.53
2023-02-11T18:05:51.309Z,62747.53
2023-02-11T18:08:19.282Z,62747.53
2023-02-11T18:10:46.600Z,62747.53
2023-02-11T18:13:16.910Z,62747.53
2023-02-11T18:15:56.067Z,62747.53
2023-02-11T18:18:23.623Z,62747.53
2023-02-11T18:21:08.792Z,62747.53
2023-02-11T18:23:45.276Z,62747.53
2023-02-11T18:26:19.242Z,62747.53
2023-02-11T18:28:48.137Z,62747.53
2023-02-11T18:31:22.182Z,62747.53
2023-02-11T18:33:49.847Z,62747.53
2023-02-11T18:36:17.494Z,62747.53
2023-02-11T18:38:45.175Z,62747.53
2023-02-11T18:41:14.846Z,62747.53
2023-02-11T18:43:43.373Z,62747.53
2023-02-11T18:46:14.748Z,62747.53
2023-02-11T18:48:45.300Z,62747.53
2023-02-11T18:51:18.624Z,62747.53
2023-02-11T18:53:46.931Z,62747.53
2023-02-11T18:56:20.929Z,62747.53
2023-02-11T18:58:49.972Z,62747.53
2023-02-11T19:01:29.825Z,62747.53
2023-02-11T19:03:59.983Z,62747.53
2023-02-11T19:06:30.519Z,62747.53
2023-02-11T19:09:02.685Z,62747.53
2023-02-11T19:11:49.160Z,62747.53
2023-02-11T19:14:29.924Z,62747.53
2023-02-11T19:17:01.731Z,62747.53
2023-02-11T19:19:33.212Z,62747.53
2023-02-11T19:22:02.362Z,62747.53
2023-02-11T19:24:30.825Z,62747.53
2023-02-11T19:27:01.474Z,62747.53
2023-02-11T19:29:32.412Z,62747.53
2023-02-11T19:32:00.510Z,62747.53
2023-02-11T19:34:28.291Z,62747.53
2023-02-11T19:36:56.853Z,62747.53
2023-02-11T19:39:25.134Z,62747.53
2023-02-11T19:41:53.644Z,62747.53
2023-02-11T19:44:21.172Z,62747.53
2023-02-11T19:46:50.786Z,62747.53
2023-02-11T19:49:23.868Z,62747.53
2023-02-11T19:51:52.981Z,62747.53
2023-02-11T19:54:21.656Z,62747.53
2023-02-11T19:56:52.965Z,62747.53
2023-02-11T19:59:21.702Z,62747.53
2023-02-11T20:01:49.894Z,62747.53
2023-02-11T20:04:23.073Z,62747.53
2023-02-11T20:06:51.070Z,62747.53
2023-02-11T20:09:21.072Z,62747.53
2023-02-11T20:14:34.255Z,62747.53
2023-02-11T20:17:04.048Z,62747.53
2023-02-11T20:19:31.482Z,62747.53
2023-02-11T20:22:01.400Z,62747.53
2023-02-11T20:24:30.031Z,62747.53
2023-02-11T20:27:04.845Z,62747.53
2023-02-11T20:29:45.996Z,62747.53
2023-02-11T20:32:15.158Z,62747.53
2023-02-11T20:34:42.938Z,62747.53
2023-02-11T20:37:10.875Z,62747.53
2023-02-11T20:39:41.961Z,62747.53
2023-02-11T20:42:11.844Z,62747.53
2023-02-11T20:44:43.195Z,62747.53
2023-02-11T20:47:11.996Z,62747.53
2023-02-11T20:49:39.740Z,62747.53
2023-02-11T20:52:08.383Z,62747.53
2023-02-11T20:54:41.490Z,62747.53
2023-02-11T20:57:16.766Z,62747.53
2023-02-11T20:59:48.074Z,62747.53
2023-02-11T21:02:19.169Z,62747.53
2023-02-11T21:04:49.989Z,62747.53
2023-02-11T21:07:25.675Z,62747.53
2023-02-11T21:10:01.841Z,62747.53
2023-02-11T21:12:32.412Z,62747.53
2023-02-11T21:15:08.041Z,62747.53
2023-02-11T21:17:38.229Z,62747.53
2023-02-11T21:20:09.089Z,62747.53
2023-02-11T21:22:36.825Z,62747.53
2023-02-11T21:25:09.184Z,62747.53
2023-02-11T21:27:52.445Z,62747.53
2023-02-11T21:30:32.291Z,62747.53
2023-02-11T21:33:02.537Z,62747.53
2023-02-11T21:35:41.802Z,62747.53
2023-02-11T21:38:24.284Z,62747.53
2023-02-11T21:40:52.734Z,62747.53
2023-02-11T21:43:21.387Z,62747.53
2023-02-11T21:46:01.125Z,62747.53
2023-02-11T21:48:41.104Z,62747.53
2023-02-11T21:54:26.020Z,62747.53
2023-02-11T21:57:26.575Z,62747.53
2023-02-11T22:00:35.484Z,62747.53
2023-02-11T22:03:49.627Z,62747.53
2023-02-11T22:06:34.617Z,62747.53
2023-02-11T22:09:24.268Z,62747.53
2023-02-11T22:12:00.478Z,62747.53
2023-02-11T22:14:46.900Z,62747.53
2023-02-11T22:20:28.535Z,62747.53
2023-02-11T22:23:05.332Z,62747.53
2023-02-11T22:25:46.005Z,62747.53
2023-02-11T22:28:16.689Z,62747.53
2023-02-11T22:30:44.548Z,62747.53
2023-02-11T22:33:22.018Z,62747.53
2023-02-11T22:35:55.839Z,62747.53
2023-02-11T22:38:34.689Z,62747.53
2023-02-11T22:41:16.353Z,62747.53
2023-02-11T22:43:44.753Z,62747.53
2023-02-11T22:46:16.800Z,62747.53
2023-02-11T22:48:48.182Z,62747.53
2023-02-11T22:51:28.541Z,62747.53
2023-02-11T22:54:05.752Z,62747.53
2023-02-11T22:56:36.483Z,62747.53
2023-02-11T22:59:07.408Z,62747.53
2023-02-11T23:01:35.894Z,62747.53
2023-02-11T23:04:07.679Z,62747.53
2023-02-11T23:06:37.795Z,62747.53
2023-02-11T23:09:08.030Z,62747.53
2023-02-11T23:11:36.630Z,62747.53
2023-02-11T23:14:04.673Z,62747.53
2023-02-11T23:16:34.521Z,62747.53
2023-02-11T23:19:07.442Z,62747.53
2023-02-11T23:21:48.105Z,62747.53
2023-02-11T23:24:18.826Z,62747.53
2023-02-11T23:26:51.425Z,62747.53
2023-02-11T23:29:19.376Z,62747.53
2023-02-11T23:31:47.341Z,62747.53
2023-02-11T23:34:17.398Z,62747.53
2023-02-11T23:36:46.312Z,62747.53
2023-02-11T23:39:16.010Z,62747.53
2023-02-11T23:41:44.012Z,62747.53
2023-02-11T23:44:11.954Z,62747.53
2023-02-11T23:46:39.768Z,62747.53
2023-02-11T23:49:07.833Z,62747.53
2023-02-11T23:51:35.220Z,62747.53
2023-02-11T23:54:03.608Z,62747.53
2023-02-11T23:56:31.119Z,62747.53
2023-02-11T23:58:59.644Z,62747.53
